sensor_id;sensor_type;location;lat;lon;timestamp;P1;durP1;ratioP1;P2;durP2;ratioP2
69841;SDS011;57138;51.326;-0.068;2023-09-19T00:00:00;13.57;;;2.35;;
69841;SDS011;57138;51.326;-0.068;2023-09-19T00:02:26;15.88;;;3.13;;
69841;SDS011;57138;51.326;-0.068;2023-09-19T00:04:55;22.52;;;2.80;;
69841;SDS011;57138;51.326;-0.068;2023-09-19T00:07:20;13.98;;;2.88;;
69841;SDS011;57138;51.326;-0.068;2023-09-19T00:09:46;19.85;;;2.63;;
69841;SDS011;57138;51.326;-0.068;2023-09-19T00:12:11;21.98;;;4.03;;
69841;SDS011;57138;51.326;-0.068;2023-09-19T00:14:38;19.45;;;2.47;;
69841;SDS011;57138;51.326;-0.068;2023-09-19T00:17:04;19.20;;;2.97;;
69841;SDS011;57138;51.326;-0.068;2023-09-19T00:19:33;15.43;;;2.65;;
69841;SDS011;57138;51.326;-0.068;2023-09-19T00:22:03;20.63;;;2.65;;
69841;SDS011;57138;51.326;-0.068;2023-09-19T00:24:32;14.27;;;2.40;;
69841;SDS011;57138;51.326;-0.068;2023-09-19T00:26:57;15.82;;;2.10;;
69841;SDS011;57138;51.326;-0.068;2023-09-19T00:29:27;15.30;;;2.28;;
69841;SDS011;57138;51.326;-0.068;2023-09-19T00:31:56;12.77;;;2.88;;
69841;SDS011;57138;51.326;-0.068;2023-09-19T00:34:22;14.20;;;2.47;;
69841;SDS011;57138;51.326;-0.068;2023-09-19T00:36:47;15.15;;;2.53;;
69841;SDS011;57138;51.326;-0.068;2023-09-19T00:39:13;18.42;;;2.70;;
69841;SDS011;57138;51.326;-0.068;2023-09-19T00:41:38;10.40;;;2.53;;
69841;SDS011;57138;51.326;-0.068;2023-09-19T00:44:04;14.93;;;2.47;;
69841;SDS011;57138;51.326;-0.068;2023-09-19T00:46:30;15.00;;;2.95;;
69841;SDS011;57138;51.326;-0.068;2023-09-19T00:48:57;25.50;;;4.55;;
69841;SDS011;57138;51.326;-0.068;2023-09-19T00:51:24;19.50;;;3.65;;
69841;SDS011;57138;51.326;-0.068;2023-09-19T00:53:51;9.38;;;2.10;;
69841;SDS011;57138;51.326;-0.068;2023-09-19T00:56:20;16.77;;;2.13;;
69841;SDS011;57138;51.326;-0.068;2023-09-19T00:58:46;16.77;;;2.60;;
69841;SDS011;57138;51.326;-0.068;2023-09-19T01:01:15;20.02;;;2.90;;
69841;SDS011;57138;51.326;-0.068;2023-09-19T01:03:42;14.75;;;2.55;;
69841;SDS011;57138;51.326;-0.068;2023-09-19T01:06:07;17.77;;;1.85;;
69841;SDS011;57138;51.326;-0.068;2023-09-19T01:08:37;18.30;;;3.35;;
69841;SDS011;57138;51.326;-0.068;2023-09-19T01:19:20;13.23;;;3.33;;
69841;SDS011;57138;51.326;-0.068;2023-09-19T01:22:17;15.07;;;3.10;;
69841;SDS011;57138;51.326;-0.068;2023-09-19T01:30:43;14.77;;;2.70;;
69841;SDS011;57138;51.326;-0.068;2023-09-19T01:33:14;18.83;;;2.95;;
69841;SDS011;57138;51.326;-0.068;2023-09-19T01:35:39;22.40;;;2.97;;
69841;SDS011;57138;51.326;-0.068;2023-09-19T01:38:08;16.58;;;4.60;;
69841;SDS011;57138;51.326;-0.068;2023-09-19T01:40:41;22.83;;;3.00;;
69841;SDS011;57138;51.326;-0.068;2023-09-19T01:46:13;25.23;;;2.80;;
69841;SDS011;57138;51.326;-0.068;2023-09-19T01:49:15;19.02;;;2.50;;
69841;SDS011;57138;51.326;-0.068;2023-09-19T01:54:24;17.38;;;2.03;;
69841;SDS011;57138;51.326;-0.068;2023-09-19T01:57:15;14.18;;;2.53;;
69841;SDS011;57138;51.326;-0.068;2023-09-19T02:00:01;18.08;;;2.53;;
69841;SDS011;57138;51.326;-0.068;2023-09-19T02:02:36;23.60;;;4.72;;
69841;SDS011;57138;51.326;-0.068;2023-09-19T02:05:03;20.42;;;2.92;;
69841;SDS011;57138;51.326;-0.068;2023-09-19T02:07:32;12.15;;;3.53;;
69841;SDS011;57138;51.326;-0.068;2023-09-19T02:09:58;12.00;;;2.22;;
69841;SDS011;57138;51.326;-0.068;2023-09-19T02:12:28;13.77;;;3.35;;
69841;SDS011;57138;51.326;-0.068;2023-09-19T02:14:53;17.38;;;3.00;;
69841;SDS011;57138;51.326;-0.068;2023-09-19T02:17:19;12.93;;;2.35;;
69841;SDS011;57138;51.326;-0.068;2023-09-19T02:19:44;17.55;;;2.97;;
69841;SDS011;57138;51.326;-0.068;2023-09-19T02:22:10;16.15;;;2.78;;
69841;SDS011;57138;51.326;-0.068;2023-09-19T02:24:38;23.45;;;3.30;;
69841;SDS011;57138;51.326;-0.068;2023-09-19T02:27:04;22.73;;;5.38;;
69841;SDS011;57138;51.326;-0.068;2023-09-19T02:29:30;18.63;;;3.50;;
69841;SDS011;57138;51.326;-0.068;2023-09-19T02:31:56;20.38;;;3.35;;
69841;SDS011;57138;51.326;-0.068;2023-09-19T02:34:21;12.25;;;2.28;;
69841;SDS011;57138;51.326;-0.068;2023-09-19T02:36:51;13.23;;;2.92;;
69841;SDS011;57138;51.326;-0.068;2023-09-19T02:39:18;16.30;;;3.63;;
69841;SDS011;57138;51.326;-0.068;2023-09-19T02:41:46;14.63;;;2.72;;
69841;SDS011;57138;51.326;-0.068;2023-09-19T02:44:11;16.52;;;3.03;;
69841;SDS011;57138;51.326;-0.068;2023-09-19T02:46:37;18.67;;;4.05;;
69841;SDS011;57138;51.326;-0.068;2023-09-19T02:49:03;17.10;;;2.60;;
69841;SDS011;57138;51.326;-0.068;2023-09-19T02:51:31;26.40;;;6.30;;
69841;SDS011;57138;51.326;-0.068;2023-09-19T02:54:00;15.82;;;2.90;;
69841;SDS011;57138;51.326;-0.068;2023-09-19T02:56:29;20.92;;;3.28;;
69841;SDS011;57138;51.326;-0.068;2023-09-19T02:58:57;20.77;;;3.70;;
69841;SDS011;57138;51.326;-0.068;2023-09-19T03:01:22;24.67;;;4.18;;
69841;SDS011;57138;51.326;-0.068;2023-09-19T03:03:48;15.10;;;2.75;;
69841;SDS011;57138;51.326;-0.068;2023-09-19T03:06:14;21.75;;;3.35;;
69841;SDS011;57138;51.326;-0.068;2023-09-19T03:08:39;17.48;;;3.63;;
69841;SDS011;57138;51.326;-0.068;2023-09-19T03:11:08;17.60;;;3.05;;
69841;SDS011;57138;51.326;-0.068;2023-09-19T03:13:36;19.25;;;2.85;;
69841;SDS011;57138;51.326;-0.068;2023-09-19T03:16:03;21.52;;;3.22;;
69841;SDS011;57138;51.326;-0.068;2023-09-19T03:18:31;19.80;;;3.72;;
69841;SDS011;57138;51.326;-0.068;2023-09-19T03:20:59;35.40;;;6.90;;
69841;SDS011;57138;51.326;-0.068;2023-09-19T03:23:25;19.10;;;3.35;;
69841;SDS011;57138;51.326;-0.068;2023-09-19T03:25:51;19.52;;;3.38;;
69841;SDS011;57138;51.326;-0.068;2023-09-19T03:28:17;16.30;;;2.45;;
69841;SDS011;57138;51.326;-0.068;2023-09-19T03:30:44;25.42;;;2.88;;
69841;SDS011;57138;51.326;-0.068;2023-09-19T03:33:09;22.73;;;3.55;;
69841;SDS011;57138;51.326;-0.068;2023-09-19T03:35:37;16.45;;;2.97;;
69841;SDS011;57138;51.326;-0.068;2023-09-19T03:38:04;17.65;;;2.63;;
69841;SDS011;57138;51.326;-0.068;2023-09-19T03:40:30;21.23;;;2.70;;
69841;SDS011;57138;51.326;-0.068;2023-09-19T03:42:55;19.20;;;3.95;;
69841;SDS011;57138;51.326;-0.068;2023-09-19T03:45:21;19.15;;;3.22;;
69841;SDS011;57138;51.326;-0.068;2023-09-19T03:47:46;22.50;;;3.88;;
69841;SDS011;57138;51.326;-0.068;2023-09-19T03:50:12;21.55;;;2.63;;
69841;SDS011;57138;51.326;-0.068;2023-09-19T03:52:42;12.48;;;2.97;;
69841;SDS011;57138;51.326;-0.068;2023-09-19T03:55:08;19.02;;;3.15;;
69841;SDS011;57138;51.326;-0.068;2023-09-19T03:57:34;19.55;;;3.67;;
69841;SDS011;57138;51.326;-0.068;2023-09-19T04:00:00;21.23;;;3.80;;
69841;SDS011;57138;51.326;-0.068;2023-09-19T04:02:27;15.32;;;4.72;;
69841;SDS011;57138;51.326;-0.068;2023-09-19T04:04:58;20.08;;;3.40;;
69841;SDS011;57138;51.326;-0.068;2023-09-19T04:07:23;23.20;;;3.97;;
69841;SDS011;57138;51.326;-0.068;2023-09-19T04:09:51;14.77;;;4.40;;
69841;SDS011;57138;51.326;-0.068;2023-09-19T04:12:18;35.55;;;4.63;;
69841;SDS011;57138;51.326;-0.068;2023-09-19T04:14:44;24.70;;;4.35;;
69841;SDS011;57138;51.326;-0.068;2023-09-19T04:17:09;21.40;;;3.95;;
69841;SDS011;57138;51.326;-0.068;2023-09-19T04:19:35;24.17;;;3.53;;
69841;SDS011;57138;51.326;-0.068;2023-09-19T04:22:01;15.00;;;3.00;;
69841;SDS011;57138;51.326;-0.068;2023-09-19T04:24:27;17.05;;;3.33;;
69841;SDS011;57138;51.326;-0.068;2023-09-19T04:26:53;30.98;;;3.92;;
69841;SDS011;57138;51.326;-0.068;2023-09-19T04:29:21;17.15;;;3.67;;
69841;SDS011;57138;51.326;-0.068;2023-09-19T04:31:47;23.67;;;3.83;;
69841;SDS011;57138;51.326;-0.068;2023-09-19T04:34:12;20.33;;;3.88;;
69841;SDS011;57138;51.326;-0.068;2023-09-19T04:36:43;23.20;;;4.03;;
69841;SDS011;57138;51.326;-0.068;2023-09-19T04:39:09;19.52;;;4.10;;
69841;SDS011;57138;51.326;-0.068;2023-09-19T04:41:37;20.95;;;3.85;;
69841;SDS011;57138;51.326;-0.068;2023-09-19T04:44:05;25.65;;;4.07;;
69841;SDS011;57138;51.326;-0.068;2023-09-19T04:46:34;15.32;;;3.00;;
69841;SDS011;57138;51.326;-0.068;2023-09-19T04:49:00;22.88;;;3.00;;
69841;SDS011;57138;51.326;-0.068;2023-09-19T04:51:28;22.00;;;4.63;;
69841;SDS011;57138;51.326;-0.068;2023-09-19T04:53:59;26.98;;;4.38;;
69841;SDS011;57138;51.326;-0.068;2023-09-19T04:56:25;20.08;;;2.47;;
69841;SDS011;57138;51.326;-0.068;2023-09-19T04:58:50;20.23;;;3.35;;
69841;SDS011;57138;51.326;-0.068;2023-09-19T05:01:16;19.52;;;3.13;;
69841;SDS011;57138;51.326;-0.068;2023-09-19T05:03:41;26.58;;;4.70;;
69841;SDS011;57138;51.326;-0.068;2023-09-19T05:06:07;18.95;;;3.10;;
69841;SDS011;57138;51.326;-0.068;2023-09-19T05:08:35;25.00;;;3.75;;
69841;SDS011;57138;51.326;-0.068;2023-09-19T05:11:01;24.92;;;4.57;;
69841;SDS011;57138;51.326;-0.068;2023-09-19T05:13:27;17.17;;;3.63;;
69841;SDS011;57138;51.326;-0.068;2023-09-19T05:15:52;34.92;;;5.05;;
69841;SDS011;57138;51.326;-0.068;2023-09-19T05:18:17;30.35;;;4.22;;
69841;SDS011;57138;51.326;-0.068;2023-09-19T05:20:43;20.08;;;3.33;;
69841;SDS011;57138;51.326;-0.068;2023-09-19T05:23:08;19.83;;;3.13;;
69841;SDS011;57138;51.326;-0.068;2023-09-19T05:25:36;24.65;;;5.65;;
69841;SDS011;57138;51.326;-0.068;2023-09-19T05:28:02;16.05;;;2.97;;
69841;SDS011;57138;51.326;-0.068;2023-09-19T05:30:31;25.80;;;3.50;;
69841;SDS011;57138;51.326;-0.068;2023-09-19T05:32:57;17.45;;;3.00;;
69841;SDS011;57138;51.326;-0.068;2023-09-19T05:35:23;19.17;;;4.32;;
69841;SDS011;57138;51.326;-0.068;2023-09-19T05:37:53;24.33;;;2.65;;
69841;SDS011;57138;51.326;-0.068;2023-09-19T05:40:20;25.40;;;2.47;;
69841;SDS011;57138;51.326;-0.068;2023-09-19T05:42:46;19.30;;;2.83;;
69841;SDS011;57138;51.326;-0.068;2023-09-19T05:45:16;20.35;;;3.05;;
69841;SDS011;57138;51.326;-0.068;2023-09-19T05:47:50;18.25;;;3.17;;
69841;SDS011;57138;51.326;-0.068;2023-09-19T05:50:21;13.77;;;3.20;;
69841;SDS011;57138;51.326;-0.068;2023-09-19T05:52:53;25.33;;;3.67;;
69841;SDS011;57138;51.326;-0.068;2023-09-19T05:55:20;21.75;;;2.50;;
69841;SDS011;57138;51.326;-0.068;2023-09-19T05:57:50;18.15;;;2.47;;
69841;SDS011;57138;51.326;-0.068;2023-09-19T06:00:18;19.33;;;2.33;;
69841;SDS011;57138;51.326;-0.068;2023-09-19T06:02:53;20.75;;;2.78;;
69841;SDS011;57138;51.326;-0.068;2023-09-19T06:05:23;21.65;;;2.60;;
69841;SDS011;57138;51.326;-0.068;2023-09-19T06:07:52;16.42;;;2.47;;
69841;SDS011;57138;51.326;-0.068;2023-09-19T06:10:18;18.60;;;2.40;;
69841;SDS011;57138;51.326;-0.068;2023-09-19T06:12:47;22.17;;;2.08;;
69841;SDS011;57138;51.326;-0.068;2023-09-19T06:15:13;20.52;;;2.78;;
69841;SDS011;57138;51.326;-0.068;2023-09-19T06:17:53;18.23;;;3.42;;
69841;SDS011;57138;51.326;-0.068;2023-09-19T06:20:22;14.18;;;2.53;;
69841;SDS011;57138;51.326;-0.068;2023-09-19T06:22:49;17.70;;;1.90;;
69841;SDS011;57138;51.326;-0.068;2023-09-19T06:25:15;15.60;;;2.30;;
69841;SDS011;57138;51.326;-0.068;2023-09-19T06:27:52;19.17;;;2.85;;
69841;SDS011;57138;51.326;-0.068;2023-09-19T06:30:19;8.77;;;1.55;;
69841;SDS011;57138;51.326;-0.068;2023-09-19T06:32:45;16.88;;;1.98;;
69841;SDS011;57138;51.326;-0.068;2023-09-19T06:35:11;13.10;;;2.30;;
69841;SDS011;57138;51.326;-0.068;2023-09-19T06:37:40;10.88;;;2.47;;
69841;SDS011;57138;51.326;-0.068;2023-09-19T06:40:10;13.07;;;1.52;;
69841;SDS011;57138;51.326;-0.068;2023-09-19T06:42:46;12.57;;;2.03;;
69841;SDS011;57138;51.326;-0.068;2023-09-19T06:45:15;13.60;;;1.92;;
69841;SDS011;57138;51.326;-0.068;2023-09-19T06:47:50;20.50;;;4.05;;
69841;SDS011;57138;51.326;-0.068;2023-09-19T06:50:17;14.95;;;2.10;;
69841;SDS011;57138;51.326;-0.068;2023-09-19T06:52:47;18.23;;;3.08;;
69841;SDS011;57138;51.326;-0.068;2023-09-19T06:55:15;18.27;;;2.33;;
69841;SDS011;57138;51.326;-0.068;2023-09-19T06:57:41;13.95;;;2.03;;
69841;SDS011;57138;51.326;-0.068;2023-09-19T07:00:13;20.35;;;2.63;;
69841;SDS011;57138;51.326;-0.068;2023-09-19T07:02:56;16.17;;;2.10;;
69841;SDS011;57138;51.326;-0.068;2023-09-19T07:05:31;17.40;;;2.17;;
69841;SDS011;57138;51.326;-0.068;2023-09-19T07:07:57;16.73;;;2.42;;
69841;SDS011;57138;51.326;-0.068;2023-09-19T07:10:24;14.05;;;2.40;;
69841;SDS011;57138;51.326;-0.068;2023-09-19T07:13:03;20.42;;;2.63;;
69841;SDS011;57138;51.326;-0.068;2023-09-19T07:15:30;13.32;;;1.90;;
69841;SDS011;57138;51.326;-0.068;2023-09-19T07:18:09;21.75;;;3.05;;
69841;SDS011;57138;51.326;-0.068;2023-09-19T07:20:39;15.10;;;2.38;;
69841;SDS011;57138;51.326;-0.068;2023-09-19T07:23:04;19.23;;;3.67;;
69841;SDS011;57138;51.326;-0.068;2023-09-19T07:25:31;14.45;;;2.50;;
69841;SDS011;57138;51.326;-0.068;2023-09-19T07:27:58;16.17;;;3.05;;
69841;SDS011;57138;51.326;-0.068;2023-09-19T07:30:30;15.02;;;2.13;;
69841;SDS011;57138;51.326;-0.068;2023-09-19T07:32:55;13.80;;;2.50;;
69841;SDS011;57138;51.326;-0.068;2023-09-19T07:35:21;14.27;;;2.42;;
69841;SDS011;57138;51.326;-0.068;2023-09-19T07:37:46;14.95;;;2.75;;
69841;SDS011;57138;51.326;-0.068;2023-09-19T07:40:16;16.90;;;2.72;;
69841;SDS011;57138;51.326;-0.068;2023-09-19T07:42:45;11.32;;;2.20;;
69841;SDS011;57138;51.326;-0.068;2023-09-19T07:45:12;16.45;;;3.03;;
69841;SDS011;57138;51.326;-0.068;2023-09-19T07:47:45;12.25;;;2.42;;
69841;SDS011;57138;51.326;-0.068;2023-09-19T07:50:12;12.57;;;2.67;;
69841;SDS011;57138;51.326;-0.068;2023-09-19T07:52:38;13.10;;;3.10;;
69841;SDS011;57138;51.326;-0.068;2023-09-19T07:55:05;20.48;;;2.80;;
69841;SDS011;57138;51.326;-0.068;2023-09-19T07:57:34;14.75;;;2.53;;
69841;SDS011;57138;51.326;-0.068;2023-09-19T08:00:03;14.13;;;2.83;;
69841;SDS011;57138;51.326;-0.068;2023-09-19T08:02:42;21.65;;;4.07;;
69841;SDS011;57138;51.326;-0.068;2023-09-19T08:05:17;26.95;;;3.70;;
69841;SDS011;57138;51.326;-0.068;2023-09-19T08:07:46;19.67;;;3.10;;
69841;SDS011;57138;51.326;-0.068;2023-09-19T08:10:15;14.50;;;3.70;;
69841;SDS011;57138;51.326;-0.068;2023-09-19T08:12:44;16.67;;;3.42;;
69841;SDS011;57138;51.326;-0.068;2023-09-19T08:15:20;16.20;;;4.18;;
69841;SDS011;57138;51.326;-0.068;2023-09-19T08:17:46;24.67;;;3.90;;
69841;SDS011;57138;51.326;-0.068;2023-09-19T08:20:14;23.58;;;4.25;;
69841;SDS011;57138;51.326;-0.068;2023-09-19T08:22:46;20.10;;;3.42;;
69841;SDS011;57138;51.326;-0.068;2023-09-19T08:25:17;25.92;;;5.05;;
69841;SDS011;57138;51.326;-0.068;2023-09-19T08:27:46;21.85;;;4.60;;
69841;SDS011;57138;51.326;-0.068;2023-09-19T08:30:18;27.80;;;5.47;;
69841;SDS011;57138;51.326;-0.068;2023-09-19T08:32:49;21.93;;;4.60;;
69841;SDS011;57138;51.326;-0.068;2023-09-19T08:35:14;18.58;;;4.07;;
69841;SDS011;57138;51.326;-0.068;2023-09-19T08:37:40;23.73;;;5.78;;
69841;SDS011;57138;51.326;-0.068;2023-09-19T08:40:05;22.83;;;3.75;;
69841;SDS011;57138;51.326;-0.068;2023-09-19T08:45:17;22.63;;;3.80;;
69841;SDS011;57138;51.326;-0.068;2023-09-19T08:53:15;24.17;;;4.30;;
69841;SDS011;57138;51.326;-0.068;2023-09-19T08:55:52;28.70;;;6.18;;
69841;SDS011;57138;51.326;-0.068;2023-09-19T08:58:21;32.22;;;6.72;;
69841;SDS011;57138;51.326;-0.068;2023-09-19T09:00:54;27.20;;;5.50;;
69841;SDS011;57138;51.326;-0.068;2023-09-19T09:03:20;26.98;;;5.35;;
69841;SDS011;57138;51.326;-0.068;2023-09-19T09:05:47;30.30;;;4.97;;
69841;SDS011;57138;51.326;-0.068;2023-09-19T09:08:15;28.63;;;5.93;;
69841;SDS011;57138;51.326;-0.068;2023-09-19T09:10:49;26.48;;;6.30;;
69841;SDS011;57138;51.326;-0.068;2023-09-19T09:13:16;27.58;;;5.18;;
69841;SDS011;57138;51.326;-0.068;2023-09-19T09:15:42;25.83;;;6.43;;
69841;SDS011;57138;51.326;-0.068;2023-09-19T09:18:09;24.05;;;4.20;;
69841;SDS011;57138;51.326;-0.068;2023-09-19T09:20:35;32.50;;;4.63;;
69841;SDS011;57138;51.326;-0.068;2023-09-19T09:23:01;26.27;;;5.25;;
69841;SDS011;57138;51.326;-0.068;2023-09-19T09:28:34;45.70;;;8.68;;
69841;SDS011;57138;51.326;-0.068;2023-09-19T09:31:02;26.80;;;4.47;;
69841;SDS011;57138;51.326;-0.068;2023-09-19T09:33:32;18.10;;;4.32;;
69841;SDS011;57138;51.326;-0.068;2023-09-19T09:35:58;24.70;;;4.90;;
69841;SDS011;57138;51.326;-0.068;2023-09-19T09:38:46;21.80;;;3.97;;
69841;SDS011;57138;51.326;-0.068;2023-09-19T09:41:24;24.45;;;4.50;;
69841;SDS011;57138;51.326;-0.068;2023-09-19T09:44:11;24.75;;;5.35;;
69841;SDS011;57138;51.326;-0.068;2023-09-19T09:46:43;28.52;;;5.07;;
69841;SDS011;57138;51.326;-0.068;2023-09-19T09:49:18;28.25;;;5.47;;
69841;SDS011;57138;51.326;-0.068;2023-09-19T09:52:01;25.43;;;5.23;;
69841;SDS011;57138;51.326;-0.068;2023-09-19T09:54:33;27.08;;;5.38;;
69841;SDS011;57138;51.326;-0.068;2023-09-19T10:02:40;22.60;;;6.32;;
69841;SDS011;57138;51.326;-0.068;2023-09-19T10:05:15;32.28;;;5.78;;
69841;SDS011;57138;51.326;-0.068;2023-09-19T10:07:45;26.17;;;6.13;;
69841;SDS011;57138;51.326;-0.068;2023-09-19T10:10:35;28.67;;;5.57;;
69841;SDS011;57138;51.326;-0.068;2023-09-19T10:13:19;27.90;;;5.70;;
69841;SDS011;57138;51.326;-0.068;2023-09-19T10:15:48;33.13;;;6.72;;
69841;SDS011;57138;51.326;-0.068;2023-09-19T10:18:16;27.67;;;6.80;;
69841;SDS011;57138;51.326;-0.068;2023-09-19T10:20:46;33.15;;;5.70;;
69841;SDS011;57138;51.326;-0.068;2023-09-19T10:23:13;40.97;;;7.35;;
69841;SDS011;57138;51.326;-0.068;2023-09-19T10:25:47;32.03;;;7.50;;
69841;SDS011;57138;51.326;-0.068;2023-09-19T10:28:15;30.20;;;6.22;;
69841;SDS011;57138;51.326;-0.068;2023-09-19T10:30:47;30.70;;;7.78;;
69841;SDS011;57138;51.326;-0.068;2023-09-19T10:33:15;27.17;;;5.93;;
69841;SDS011;57138;51.326;-0.068;2023-09-19T10:35:43;39.60;;;6.97;;
69841;SDS011;57138;51.326;-0.068;2023-09-19T10:38:25;41.70;;;7.28;;
69841;SDS011;57138;51.326;-0.068;2023-09-19T10:40:54;31.15;;;6.88;;
69841;SDS011;57138;51.326;-0.068;2023-09-19T10:43:26;36.53;;;6.72;;
69841;SDS011;57138;51.326;-0.068;2023-09-19T10:45:55;27.35;;;6.32;;
69841;SDS011;57138;51.326;-0.068;2023-09-19T10:48:29;29.73;;;5.72;;
69841;SDS011;57138;51.326;-0.068;2023-09-19T10:50:59;37.17;;;7.63;;
69841;SDS011;57138;51.326;-0.068;2023-09-19T10:53:31;24.48;;;6.20;;
69841;SDS011;57138;51.326;-0.068;2023-09-19T10:56:10;27.67;;;4.97;;
69841;SDS011;57138;51.326;-0.068;2023-09-19T10:58:42;24.98;;;6.20;;
69841;SDS011;57138;51.326;-0.068;2023-09-19T11:01:09;36.65;;;6.53;;
69841;SDS011;57138;51.326;-0.068;2023-09-19T11:03:37;28.13;;;5.78;;
69841;SDS011;57138;51.326;-0.068;2023-09-19T11:06:12;29.23;;;5.65;;
69841;SDS011;57138;51.326;-0.068;2023-09-19T11:30:34;23.27;;;4.95;;
69841;SDS011;57138;51.326;-0.068;2023-09-19T11:33:17;23.35;;;6.43;;
69841;SDS011;57138;51.326;-0.068;2023-09-19T11:43:50;21.35;;;4.78;;
69841;SDS011;57138;51.326;-0.068;2023-09-19T11:46:51;27.67;;;5.85;;
69841;SDS011;57138;51.326;-0.068;2023-09-19T11:49:17;29.38;;;5.72;;
69841;SDS011;57138;51.326;-0.068;2023-09-19T11:51:51;29.10;;;5.78;;
69841;SDS011;57138;51.326;-0.068;2023-09-19T11:54:17;22.17;;;5.40;;
69841;SDS011;57138;51.326;-0.068;2023-09-19T11:56:44;25.85;;;4.63;;
69841;SDS011;57138;51.326;-0.068;2023-09-19T11:59:10;31.05;;;8.23;;
69841;SDS011;57138;51.326;-0.068;2023-09-19T12:01:37;31.10;;;7.38;;
69841;SDS011;57138;51.326;-0.068;2023-09-19T12:04:08;22.67;;;5.38;;
69841;SDS011;57138;51.326;-0.068;2023-09-19T12:06:36;28.70;;;6.35;;
69841;SDS011;57138;51.326;-0.068;2023-09-19T12:09:07;22.20;;;4.90;;
69841;SDS011;57138;51.326;-0.068;2023-09-19T12:11:41;23.90;;;4.93;;
69841;SDS011;57138;51.326;-0.068;2023-09-19T12:14:09;23.27;;;5.88;;
69841;SDS011;57138;51.326;-0.068;2023-09-19T12:16:35;26.45;;;6.78;;
69841;SDS011;57138;51.326;-0.068;2023-09-19T12:19:19;24.02;;;4.55;;
69841;SDS011;57138;51.326;-0.068;2023-09-19T12:21:56;23.15;;;4.97;;
69841;SDS011;57138;51.326;-0.068;2023-09-19T12:24:24;21.67;;;5.07;;
69841;SDS011;57138;51.326;-0.068;2023-09-19T12:26:56;25.15;;;4.13;;
69841;SDS011;57138;51.326;-0.068;2023-09-19T12:29:27;19.85;;;5.10;;
69841;SDS011;57138;51.326;-0.068;2023-09-19T12:31:55;19.40;;;4.25;;
69841;SDS011;57138;51.326;-0.068;2023-09-19T12:34:31;19.13;;;4.55;;
69841;SDS011;57138;51.326;-0.068;2023-09-19T12:37:08;21.15;;;5.68;;
69841;SDS011;57138;51.326;-0.068;2023-09-19T12:39:41;23.70;;;5.30;;
69841;SDS011;57138;51.326;-0.068;2023-09-19T12:42:10;21.30;;;4.40;;
69841;SDS011;57138;51.326;-0.068;2023-09-19T12:44:40;20.88;;;4.20;;
69841;SDS011;57138;51.326;-0.068;2023-09-19T12:47:12;21.25;;;4.78;;
69841;SDS011;57138;51.326;-0.068;2023-09-19T12:52:47;19.95;;;5.28;;
69841;SDS011;57138;51.326;-0.068;2023-09-19T12:55:28;33.03;;;6.93;;
69841;SDS011;57138;51.326;-0.068;2023-09-19T13:00:33;17.38;;;4.07;;
69841;SDS011;57138;51.326;-0.068;2023-09-19T13:03:15;18.45;;;4.57;;
69841;SDS011;57138;51.326;-0.068;2023-09-19T13:05:50;18.25;;;4.40;;
69841;SDS011;57138;51.326;-0.068;2023-09-19T13:08:21;26.10;;;5.05;;
69841;SDS011;57138;51.326;-0.068;2023-09-19T13:13:43;20.33;;;4.03;;
69841;SDS011;57138;51.326;-0.068;2023-09-19T13:16:14;24.15;;;4.50;;
69841;SDS011;57138;51.326;-0.068;2023-09-19T13:18:48;24.45;;;5.00;;
69841;SDS011;57138;51.326;-0.068;2023-09-19T13:21:28;21.17;;;4.57;;
69841;SDS011;57138;51.326;-0.068;2023-09-19T13:26:50;16.95;;;4.05;;
69841;SDS011;57138;51.326;-0.068;2023-09-19T13:29:16;23.77;;;5.20;;
69841;SDS011;57138;51.326;-0.068;2023-09-19T13:31:49;21.02;;;6.03;;
69841;SDS011;57138;51.326;-0.068;2023-09-19T13:34:18;25.50;;;5.47;;
69841;SDS011;57138;51.326;-0.068;2023-09-19T13:36:45;20.58;;;4.43;;
69841;SDS011;57138;51.326;-0.068;2023-09-19T13:39:15;20.80;;;5.03;;
69841;SDS011;57138;51.326;-0.068;2023-09-19T13:41:41;21.38;;;5.90;;
69841;SDS011;57138;51.326;-0.068;2023-09-19T13:44:07;16.58;;;4.07;;
69841;SDS011;57138;51.326;-0.068;2023-09-19T13:46:35;21.75;;;5.35;;
69841;SDS011;57138;51.326;-0.068;2023-09-19T13:49:01;17.77;;;4.65;;
69841;SDS011;57138;51.326;-0.068;2023-09-19T13:51:28;21.75;;;4.15;;
69841;SDS011;57138;51.326;-0.068;2023-09-19T13:53:55;16.55;;;3.47;;
69841;SDS011;57138;51.326;-0.068;2023-09-19T13:56:29;19.67;;;3.75;;
69841;SDS011;57138;51.326;-0.068;2023-09-19T13:58:59;13.60;;;3.00;;
69841;SDS011;57138;51.326;-0.068;2023-09-19T14:01:24;14.32;;;3.55;;
69841;SDS011;57138;51.326;-0.068;2023-09-19T14:03:51;18.83;;;3.97;;
69841;SDS011;57138;51.326;-0.068;2023-09-19T14:06:19;12.32;;;3.20;;
69841;SDS011;57138;51.326;-0.068;2023-09-19T14:08:44;15.13;;;3.42;;
69841;SDS011;57138;51.326;-0.068;2023-09-19T14:11:12;12.45;;;3.28;;
69841;SDS011;57138;51.326;-0.068;2023-09-19T14:13:39;21.10;;;3.78;;
69841;SDS011;57138;51.326;-0.068;2023-09-19T14:16:05;18.65;;;4.10;;
69841;SDS011;57138;51.326;-0.068;2023-09-19T14:18:31;15.30;;;2.92;;
69841;SDS011;57138;51.326;-0.068;2023-09-19T14:20:57;12.77;;;4.57;;
69841;SDS011;57138;51.326;-0.068;2023-09-19T14:23:24;10.07;;;2.60;;
69841;SDS011;57138;51.326;-0.068;2023-09-19T14:25:51;14.23;;;3.45;;
69841;SDS011;57138;51.326;-0.068;2023-09-19T14:28:18;13.07;;;3.35;;
69841;SDS011;57138;51.326;-0.068;2023-09-19T14:30:44;19.25;;;4.30;;
69841;SDS011;57138;51.326;-0.068;2023-09-19T14:33:11;22.20;;;5.32;;
69841;SDS011;57138;51.326;-0.068;2023-09-19T14:35:36;21.02;;;4.40;;
69841;SDS011;57138;51.326;-0.068;2023-09-19T14:38:02;14.15;;;3.97;;
69841;SDS011;57138;51.326;-0.068;2023-09-19T14:40:28;13.30;;;3.22;;
69841;SDS011;57138;51.326;-0.068;2023-09-19T14:42:53;15.15;;;4.85;;
69841;SDS011;57138;51.326;-0.068;2023-09-19T14:45:18;19.80;;;4.95;;
69841;SDS011;57138;51.326;-0.068;2023-09-19T14:47:47;18.73;;;3.88;;
69841;SDS011;57138;51.326;-0.068;2023-09-19T14:50:15;20.15;;;4.03;;
69841;SDS011;57138;51.326;-0.068;2023-09-19T14:52:40;14.52;;;4.25;;
69841;SDS011;57138;51.326;-0.068;2023-09-19T14:55:06;18.50;;;4.47;;
69841;SDS011;57138;51.326;-0.068;2023-09-19T14:57:34;14.75;;;3.85;;
69841;SDS011;57138;51.326;-0.068;2023-09-19T14:59:59;16.60;;;3.88;;
69841;SDS011;57138;51.326;-0.068;2023-09-19T15:02:25;17.83;;;4.00;;
69841;SDS011;57138;51.326;-0.068;2023-09-19T15:04:51;19.73;;;3.80;;
69841;SDS011;57138;51.326;-0.068;2023-09-19T15:07:17;21.13;;;4.15;;
69841;SDS011;57138;51.326;-0.068;2023-09-19T15:09:45;16.48;;;3.13;;
69841;SDS011;57138;51.326;-0.068;2023-09-19T15:12:11;16.48;;;3.47;;
69841;SDS011;57138;51.326;-0.068;2023-09-19T15:14:40;19.52;;;3.88;;
69841;SDS011;57138;51.326;-0.068;2023-09-19T15:17:07;17.40;;;3.67;;
69841;SDS011;57138;51.326;-0.068;2023-09-19T15:19:32;18.27;;;4.30;;
69841;SDS011;57138;51.326;-0.068;2023-09-19T15:21:58;20.42;;;4.57;;
69841;SDS011;57138;51.326;-0.068;2023-09-19T15:24:23;21.35;;;4.07;;
69841;SDS011;57138;51.326;-0.068;2023-09-19T15:26:51;21.77;;;4.70;;
69841;SDS011;57138;51.326;-0.068;2023-09-19T15:29:17;20.25;;;4.13;;
69841;SDS011;57138;51.326;-0.068;2023-09-19T15:31:42;20.60;;;3.85;;
69841;SDS011;57138;51.326;-0.068;2023-09-19T15:34:08;16.38;;;4.20;;
69841;SDS011;57138;51.326;-0.068;2023-09-19T15:36:34;15.63;;;3.55;;
69841;SDS011;57138;51.326;-0.068;2023-09-19T15:39:00;17.38;;;4.55;;
69841;SDS011;57138;51.326;-0.068;2023-09-19T15:41:35;21.17;;;4.15;;
69841;SDS011;57138;51.326;-0.068;2023-09-19T15:44:10;17.38;;;3.72;;
69841;SDS011;57138;51.326;-0.068;2023-09-19T15:46:37;15.40;;;3.78;;
69841;SDS011;57138;51.326;-0.068;2023-09-19T15:49:03;22.52;;;5.22;;